Date,TemperatureHighF,TemperatureAvgF,TemperatureLowF,DewpointHighF,DewpointAvgF,DewpointLowF,HumidityHigh,HumidityAvg,HumidityLow,PressureMaxIn,PressureMinIn,WindSpeedMaxMPH,WindSpeedAvgMPH,GustSpeedMaxMPH,PrecipitationSumIn
2013-1-3,79,73,70,66,66,60,86,79,60,30.18,30.12,0,0,0,0.00
2013-1-4,81,73,67,71,67,65,95,83,66,30.27,30.15,6,1,6,0.08
2013-1-5,75,70,66,71,67,65,95,92,80,30.30,30.21,9,2,9,0.04
2013-1-6,80,72,66,73,68,64,98,87,73,30.24,30.12,8,2,8,0.00
2013-1-7,74,71,68,71,69,67,96,94,87,30.21,30.12,5,0,5,0.28
2013-1-8,80,74,70,75,71,69,98,91,75,30.24,30.15,8,2,8,0.08
2013-1-9,82,76,73,72,70,68,94,82,69,30.33,30.21,9,3,9,0.00
2013-1-10,74,74,73,68,66,64,82,78,73,30.33,30.30,7,2,7,0.00
2013-1-11,80,75,72,70,67,65,86,77,69,30.30,30.21,9,2,9,0.00
2013-1-12,80,74,69,68,66,64,87,77,62,30.21,30.15,4,1,4,0.00
2013-1-13,80,74,69,69,65,61,87,73,60,30.18,30.12,11,2,11,0.00
2013-1-14,79,75,67,66,64,61,88,69,61,30.21,30.18,5,2,5,0.00
2013-1-15,79,74,68,67,65,63,85,73,61,30.18,30.09,8,2,8,0.00
2013-1-16,80,71,66,71,65,62,97,82,68,30.15,30.06,0,0,0,0.00
2013-1-17,78,72,63,72,66,49,98,84,63,30.15,30.00,10,2,10,0.08
2013-1-18,71,63,54,58,51,43,75,64,56,30.30,30.15,10,4,10,0.00
2013-1-19,71,68,66,68,63,57,97,84,67,30.27,30.15,5,0,5,0.24
2013-1-20,76,70,65,70,67,64,98,89,76,30.18,30.06,8,1,8,0.04
2013-1-21,77,71,66,72,68,64,98,91,78,30.12,30.00,5,0,5,0.16
2013-1-22,74,68,63,64,57,48,94,69,50,30.18,30.06,12,4,12,0.00
2013-1-23,73,67,62,57,52,49,73,61,45,30.33,30.18,11,3,11,0.00
2013-1-24,73,65,60,54,49,39,77,58,38,30.36,30.24,9,2,9,0.00
2013-1-25,75,66,59,59,53,48,79,64,48,30.36,30.24,9,1,9,0.00
2013-1-26,75,67,60,59,56,49,87,69,48,30.30,30.21,9,1,9,0.00
2013-1-27,76,69,62,62,58,54,86,68,46,30.33,30.24,8,2,8,0.00
2013-1-28,79,73,69,66,62,59,81,69,55,30.36,30.27,9,2,9,0.00
2013-1-29,80,74,71,71,66,63,89,78,65,30.30,30.18,10,2,10,0.00
2013-1-30,79,73,70,68,64,62,90,74,61,30.18,30.00,9,3,232,0.00
2013-1-31,70,67,59,69,58,36,98,75,40,30.24,30.00,11,2,11,0.00